Time;durP1;ratioP1;P1;durP2;ratioP2;P2;SDS_P1;SDS_P2;PMS_P1;PMS_P2;Temp;Humidity;BMP_temperature;BMP_pressure;BME280_temperature;BME280_humidity;BME280_pressure;Samples;Min_cycle;Max_cycle;Signal;HPM_P1;HPM_P2
2022/08/14 00:02:08;;;;;;;;;;;;;;;20.77;100.00;98761.44;5086390;28;19925;-81
2022/08/14 00:04:35;;;;;;;;;;;;;;;20.78;100.00;98760.19;5052733;28;20015;-81
2022/08/14 00:07:03;;;;;;;;;;;;;;;20.99;100.00;98758.88;5053884;28;19925;-80
2022/08/14 00:09:30;;;;;;;;;;;;;;;21.00;100.00;98755.53;5069375;28;19990;-81
2022/08/14 00:11:57;;;;;;;;;;;;;;;20.93;100.00;98758.00;5053871;28;19925;-81
2022/08/14 00:14:25;;;;;;;;;;;;;;;20.86;100.00;98752.75;5052776;28;19925;-81
2022/08/14 00:16:53;;;;;;;;;;;;;;;20.79;100.00;98747.53;5053983;28;20016;-81
2022/08/14 00:19:20;;;;;;;;;;;;;;;20.41;100.00;98748.66;5053884;28;19925;-81
2022/08/14 00:21:51;;;;;;;;;;;;;;;20.37;100.00;98744.47;5069370;28;20261;-81
2022/08/14 00:24:22;;;;;;;;;;;;;;;20.61;100.00;98747.84;5084364;28;19963;-81
2022/08/14 00:26:49;;;;;;;;;;;;;;;20.74;100.00;98743.34;5053759;28;20332;-81
2022/08/14 00:29:16;;;;;;;;;;;;;;;20.64;100.00;98733.44;5085967;28;20023;-81
2022/08/14 00:31:45;;;;;;;;;;;;;;;20.70;100.00;98733.50;5052641;28;19924;-81
2022/08/14 00:34:12;;;;;;;;;;;;;;;19.96;100.00;98734.34;5053650;28;19925;-81
2022/08/14 00:36:39;;;;;;;;;;;;;;;20.22;100.00;98735.25;5053715;28;19925;-81
2022/08/14 00:39:07;;;;;;;;;;;;;;;20.30;100.00;98734.31;5052397;28;19924;-80
2022/08/14 00:41:34;;;;;;;;;;;;;;;19.95;100.00;98729.97;5069084;28;20327;-80
2022/08/14 00:44:01;;;;;;;;;;;;;;;20.00;100.00;98734.91;5085472;28;20372;-80
2022/08/14 00:46:29;;;;;;;;;;;;;;;19.76;100.00;98742.81;5053673;28;19925;-80
2022/08/14 00:48:56;;;;;;;;;;;;;;;20.09;100.00;98738.41;5053590;28;19925;-80
2022/08/14 00:51:23;;;;;;;;;;;;;;;20.27;100.00;98732.47;5052705;28;19971;-81
2022/08/14 00:53:52;;;;;;;;;;;;;;;20.17;100.00;98739.56;5053019;28;19944;-80
2022/08/14 00:56:20;;;;;;;;;;;;;;;20.00;100.00;98737.75;5085751;28;20008;-81
2022/08/14 00:58:47;;;;;;;;;;;;;;;19.61;100.00;98729.47;5068715;28;19932;-80
2022/08/14 01:01:16;;;;;;;;;;;;;;;19.21;100.00;98732.16;5085260;28;20020;-80
2022/08/14 01:03:44;;;;;;;;;;;;;;;18.66;100.00;98731.16;5085479;28;19924;-80
2022/08/14 01:06:14;;;;;;;;;;;;;;;19.39;100.00;98723.47;5053440;28;20022;-80
2022/08/14 01:08:42;;;;;;;;;;;;;;;19.76;100.00;98725.81;5052052;28;19963;-80
2022/08/14 01:11:14;;;;;;;;;;;;;;;19.75;100.00;98729.94;5052193;28;19974;-80
2022/08/14 01:13:42;;;;;;;;;;;;;;;19.78;100.00;98723.28;5052306;28;19928;-80
2022/08/14 01:16:11;;;;;;;;;;;;;;;19.86;100.00;98718.75;5068893;28;19924;-81
2022/08/14 01:21:30;;;;;;;;;;;;;;;19.47;100.00;98704.78;5053371;28;19959;-80
2022/08/14 01:23:57;;;;;;;;;;;;;;;19.41;100.00;98706.75;5088207;28;20271;-80
2022/08/14 01:26:25;;;;;;;;;;;;;;;19.49;100.00;98705.06;5072390;28;19925;-81
2022/08/14 01:28:54;;;;;;;;;;;;;;;19.49;100.00;98707.13;5039033;28;19925;-79
2022/08/14 01:31:24;;;;;;;;;;;;;;;19.55;100.00;98700.25;5056792;28;20414;-80
2022/08/14 01:33:54;;;;;;;;;;;;;;;19.04;100.00;98699.13;5055436;28;20322;-80
2022/08/14 01:36:22;;;;;;;;;;;;;;;18.69;100.00;98701.88;5056494;28;19928;-80
2022/08/14 01:38:52;;;;;;;;;;;;;;;18.27;100.00;98706.94;5055171;28;20388;-80
2022/08/14 01:41:20;;;;;;;;;;;;;;;18.87;100.00;98698.84;5056677;28;19931;-80
2022/08/14 01:43:52;;;;;;;;;;;;;;;19.27;100.00;98684.91;5055364;28;19925;-80
2022/08/14 01:46:21;;;;;;;;;;;;;;;19.36;100.00;98687.63;5055750;28;20043;-80
2022/08/14 01:48:50;;;;;;;;;;;;;;;18.93;100.00;98685.56;5038890;28;19932;-80
2022/08/14 01:51:21;;;;;;;;;;;;;;;18.88;100.00;98677.00;5088335;28;20516;-80
2022/08/14 01:53:51;;;;;;;;;;;;;;;19.04;100.00;98680.09;5087818;28;19928;-80
2022/08/14 01:56:18;;;;;;;;;;;;;;;19.22;100.00;98679.13;5055497;28;19929;-80
2022/08/14 01:58:48;;;;;;;;;;;;;;;19.25;100.00;98681.75;5070865;28;19925;-80
2022/08/14 02:01:16;;;;;;;;;;;;;;;18.75;100.00;98679.34;5070785;28;20348;-80
2022/08/14 02:03:43;;;;;;;;;;;;;;;19.12;100.00;98678.44;5056061;28;19929;-80
2022/08/14 02:06:11;;;;;;;;;;;;;;;19.24;100.00;98668.84;5070814;28;19948;-81
2022/08/14 02:08:39;;;;;;;;;;;;;;;18.89;100.00;98673.69;5054069;28;19994;-81
2022/08/14 02:11:23;;;;;;;;;;;;;;;18.64;100.00;98671.44;5071197;28;19955;-80
2022/08/14 02:13:50;;;;;;;;;;;;;;;19.10;100.00;98669.66;5088061;28;19924;-81
2022/08/14 02:16:19;;;;;;;;;;;;;;;19.23;100.00;98677.84;5071162;28;19972;-81
2022/08/14 02:18:48;;;;;;;;;;;;;;;18.87;100.00;98664.88;5054757;28;19931;-81
2022/08/14 02:21:17;;;;;;;;;;;;;;;18.52;100.00;98669.69;5054530;28;19931;-80
2022/08/14 02:23:45;;;;;;;;;;;;;;;18.62;100.00;98668.31;5055837;28;19924;-81
2022/08/14 02:26:14;;;;;;;;;;;;;;;18.98;100.00;98661.47;5054786;28;19929;-81
2022/08/14 02:28:41;;;;;;;;;;;;;;;19.26;100.00;98660.66;5054492;28;20014;-80
2022/08/14 02:31:09;;;;;;;;;;;;;;;19.30;100.00;98657.63;5070845;28;19925;-79
2022/08/14 02:33:36;;;;;;;;;;;;;;;19.23;100.00;98655.97;5054545;28;19925;-80
2022/08/14 02:36:04;;;;;;;;;;;;;;;18.93;100.00;98654.44;5054730;28;19925;-80
2022/08/14 02:38:31;;;;;;;;;;;;;;;18.78;100.00;98653.66;5054225;28;19932;-79
2022/08/14 02:40:58;;;;;;;;;;;;;;;19.05;100.00;98656.19;5055243;28;19966;-79
2022/08/14 02:43:30;;;;;;;;;;;;;;;19.03;100.00;98652.28;5087432;28;20074;-80
2022/08/14 02:45:58;;;;;;;;;;;;;;;18.41;100.00;98651.72;5054011;28;19925;-80
2022/08/14 02:48:30;;;;;;;;;;;;;;;18.16;100.00;98655.06;5054057;28;20257;-80
2022/08/14 02:51:01;;;;;;;;;;;;;;;18.13;100.00;98661.69;5070325;28;19924;-80
2022/08/14 02:53:29;;;;;;;;;;;;;;;18.69;100.00;98645.28;5037561;28;19925;-80
2022/08/14 02:55:57;;;;;;;;;;;;;;;19.07;100.00;98645.16;5037366;28;20364;-80
2022/08/14 02:58:25;;;;;;;;;;;;;;;19.35;100.00;98645.63;5055040;28;19932;-80
2022/08/14 03:00:54;;;;;;;;;;;;;;;19.50;100.00;98638.63;5053909;28;20025;-80
2022/08/14 03:03:22;;;;;;;;;;;;;;;19.65;100.00;98630.06;5055025;28;19986;-80
2022/08/14 03:05:50;;;;;;;;;;;;;;;19.66;100.00;98638.06;5086737;28;19925;-80
2022/08/14 03:08:18;;;;;;;;;;;;;;;19.63;100.00;98632.59;5055056;28;19936;-80
2022/08/14 03:10:46;;;;;;;;;;;;;;;19.53;100.00;98623.47;5053690;28;19932;-80
2022/08/14 03:13:14;;;;;;;;;;;;;;;19.36;100.00;98625.28;5086670;28;19925;-80
2022/08/14 03:15:52;;;;;;;;;;;;;;;18.93;100.00;98631.78;5054782;28;19932;-80
2022/08/14 03:18:23;;;;;;;;;;;;;;;19.32;100.00;98623.94;5037036;28;20298;-80
2022/08/14 03:20:50;;;;;;;;;;;;;;;19.44;100.00;98626.44;5054595;28;19925;-80
2022/08/14 03:23:18;;;;;;;;;;;;;;;19.61;100.00;98618.19;5070038;28;19924;-80
2022/08/14 03:25:46;;;;;;;;;;;;;;;19.54;100.00;98613.69;5054411;28;20376;-80
2022/08/14 03:28:13;;;;;;;;;;;;;;;19.41;100.00;98612.47;5053426;28;20441;-80
2022/08/14 03:30:41;;;;;;;;;;;;;;;19.20;100.00;98603.16;5086682;28;20391;-80
2022/08/14 03:33:10;;;;;;;;;;;;;;;19.35;100.00;98601.09;5053246;28;19931;-80
2022/08/14 03:35:41;;;;;;;;;;;;;;;19.43;100.00;98605.03;5054029;28;19932;-80
2022/08/14 03:38:10;;;;;;;;;;;;;;;19.38;100.00;98593.63;5020288;28;19925;-80
2022/08/14 03:40:39;;;;;;;;;;;;;;;19.22;100.00;98586.44;5069902;28;19932;-80
2022/08/14 03:43:06;;;;;;;;;;;;;;;19.17;100.00;98586.34;5069782;28;20384;-80
2022/08/14 03:45:34;;;;;;;;;;;;;;;19.15;100.00;98584.03;5054058;28;19929;-80
2022/08/14 03:48:03;;;;;;;;;;;;;;;19.01;100.00;98586.88;5053001;28;19925;-80
2022/08/14 03:50:31;;;;;;;;;;;;;;;19.10;100.00;98583.94;5086504;28;19925;-81
2022/08/14 03:53:00;;;;;;;;;;;;;;;18.77;100.00;98584.19;5069665;28;19925;-80
2022/08/14 03:55:27;;;;;;;;;;;;;;;18.99;100.00;98578.88;5054238;28;19925;-80
2022/08/14 03:57:54;;;;;;;;;;;;;;;19.08;100.00;98578.78;5069830;28;19924;-81
2022/08/14 04:00:22;;;;;;;;;;;;;;;19.05;100.00;98576.91;5054521;28;20066;-81
2022/08/14 04:02:49;;;;;;;;;;;;;;;18.96;100.00;98562.88;5053898;28;19924;-81
2022/08/14 04:05:17;;;;;;;;;;;;;;;18.46;100.00;98575.47;5054262;28;19948;-81
2022/08/14 04:07:45;;;;;;;;;;;;;;;18.69;100.00;98566.06;5054210;28;19932;-80
2022/08/14 04:10:13;;;;;;;;;;;;;;;18.82;100.00;98563.69;5054278;28;20399;-81
2022/08/14 04:12:40;;;;;;;;;;;;;;;18.87;100.00;98565.81;5054251;28;20421;-81
2022/08/14 04:15:07;;;;;;;;;;;;;;;18.92;100.00;98556.66;5086238;28;19925;-81
2022/08/14 04:17:34;;;;;;;;;;;;;;;18.75;100.00;98558.44;5053840;28;19928;-80
2022/08/14 04:20:03;;;;;;;;;;;;;;;18.76;100.00;98556.38;5054098;28;19974;-81
2022/08/14 04:22:30;;;;;;;;;;;;;;;18.64;100.00;98551.81;5053114;28;20379;-81
2022/08/14 04:24:58;;;;;;;;;;;;;;;18.64;100.00;98551.81;5086152;28;20352;-81
2022/08/14 04:27:28;;;;;;;;;;;;;;;18.68;100.00;98556.00;5054027;28;20382;-81
2022/08/14 04:29:56;;;;;;;;;;;;;;;18.76;100.00;98553.56;5069478;28;19925;-81
2022/08/14 04:32:25;;;;;;;;;;;;;;;18.75;100.00;98552.78;5069233;28;19929;-81
2022/08/14 04:34:53;;;;;;;;;;;;;;;18.44;100.00;98554.56;5053976;28;19931;-81
2022/08/14 04:45:40;;;;;;;;;;;;;;;18.71;100.00;98555.03;5053775;28;19932;-81
2022/08/14 04:48:11;;;;;;;;;;;;;;;18.93;100.00;98546.88;5053557;28;19983;-81
2022/08/14 04:50:49;;;;;;;;;;;;;;;18.83;100.00;98547.47;5052783;28;19931;-81
2022/08/14 04:53:20;;;;;;;;;;;;;;;18.80;100.00;98549.25;5052696;28;20020;-81
2022/08/14 04:55:49;;;;;;;;;;;;;;;18.75;100.00;98555.59;5036180;28;20039;-81
2022/08/14 04:58:26;;;;;;;;;;;;;;;18.20;100.00;98557.47;5088110;28;19931;-81
2022/08/14 05:00:54;;;;;;;;;;;;;;;18.66;100.00;98550.06;5089797;28;19925;-81
2022/08/14 05:03:26;;;;;;;;;;;;;;;18.79;100.00;98552.56;5073201;28;19925;-81
2022/08/14 05:05:54;;;;;;;;;;;;;;;18.72;100.00;98547.34;5057613;28;19929;-81
2022/08/14 05:08:22;;;;;;;;;;;;;;;18.59;100.00;98549.66;5057564;28;19932;-80
2022/08/14 05:10:51;;;;;;;;;;;;;;;18.72;100.00;98550.91;5056175;28;19932;-81
2022/08/14 05:13:19;;;;;;;;;;;;;;;18.12;100.00;98556.28;5057321;28;20287;-81
2022/08/14 05:15:47;;;;;;;;;;;;;;;18.57;100.00;98553.00;5070908;28;19925;-81
2022/08/14 05:18:15;;;;;;;;;;;;;;;18.76;100.00;98554.34;5057392;28;19925;-81
2022/08/14 05:20:45;;;;;;;;;;;;;;;18.84;100.00;98549.06;5056111;28;19951;-81
2022/08/14 05:23:23;;;;;;;;;;;;;;;18.79;100.00;98547.72;5038941;28;20414;-81
2022/08/14 05:26:22;;;;;;;;;;;;;;;18.22;100.00;98549.25;5055558;28;19932;-81
2022/08/14 05:28:53;;;;;;;;;;;;;;;18.46;100.00;98550.00;5056913;28;20288;-81
2022/08/14 05:31:21;;;;;;;;;;;;;;;18.71;100.00;98557.84;5057002;28;19931;-80
2022/08/14 05:33:50;;;;;;;;;;;;;;;18.24;100.00;98546.75;5089052;28;20356;-81
2022/08/14 05:36:18;;;;;;;;;;;;;;;18.00;100.00;98551.69;5072460;28;19972;-81
2022/08/14 05:38:46;;;;;;;;;;;;;;;18.14;100.00;98541.66;5057047;28;19931;-81
2022/08/14 05:41:17;;;;;;;;;;;;;;;18.41;100.00;98539.34;5072221;28;19929;-81
2022/08/14 05:43:49;;;;;;;;;;;;;;;18.90;100.00;98541.44;5072246;28;19931;-81
2022/08/14 05:46:17;;;;;;;;;;;;;;;19.32;100.00;98539.75;5056796;28;19925;-81
2022/08/14 05:48:48;;;;;;;;;;;;;;;19.60;100.00;98538.03;5055662;28;19948;-81
2022/08/14 05:51:15;;;;;;;;;;;;;;;19.62;100.00;98543.22;5056529;28;20307;-82
2022/08/14 05:53:43;;;;;;;;;;;;;;;19.64;100.00;98532.94;5072342;28;19928;-82
2022/08/14 05:56:10;;;;;;;;;;;;;;;19.77;100.00;98524.06;5088965;28;19925;-81
2022/08/14 05:58:37;;;;;;;;;;;;;;;19.84;100.00;98520.81;5056274;28;19947;-82
2022/08/14 06:01:04;;;;;;;;;;;;;;;19.51;100.00;98526.06;5055490;28;20262;-85
2022/08/14 06:03:31;;;;;;;;;;;;;;;19.92;100.00;98532.50;5055278;28;19931;-83
2022/08/14 06:05:58;;;;;;;;;;;;;;;19.97;100.00;98526.09;5071487;28;20326;-84
2022/08/14 06:08:26;;;;;;;;;;;;;;;19.98;100.00;98519.91;5021739;28;20015;-83
2022/08/14 06:11:02;;;;;;;;;;;;;;;20.23;100.00;98521.22;5038407;28;19936;-84
2022/08/14 06:13:31;;;;;;;;;;;;;;;20.43;100.00;98506.97;5054673;28;19959;-83
2022/08/14 06:15:59;;;;;;;;;;;;;;;20.61;100.00;98517.94;5071417;28;19931;-83
2022/08/14 06:18:26;;;;;;;;;;;;;;;20.61;100.00;98515.09;5071302;28;19924;-85
2022/08/14 06:20:53;;;;;;;;;;;;;;;20.83;100.00;98518.09;5071024;28;19950;-85
2022/08/14 06:23:21;;;;;;;;;;;;;;;20.93;100.00;98510.94;5070981;28;19924;-84
2022/08/14 06:25:48;;;;;;;;;;;;;;;20.86;100.00;98505.72;5038244;28;19982;-78
2022/08/14 06:28:18;;;;;;;;;;;;;;;20.57;100.00;98506.06;5055592;28;20033;-80
2022/08/14 06:30:45;;;;;;;;;;;;;;;20.64;100.00;98499.91;5081060;28;20019;-79
2022/08/14 06:33:13;;;;;;;;;;;;;;;20.83;100.00;98495.38;5070211;28;19924;-80
2022/08/14 06:35:42;;;;;;;;;;;;;;;20.97;100.00;98500.16;5071228;28;19924;-80
2022/08/14 06:38:19;;;;;;;;;;;;;;;21.13;100.00;98505.94;5071022;28;20272;-79
2022/08/14 06:40:47;;;;;;;;;;;;;;;21.34;100.00;98495.22;5087064;28;20093;-80
2022/08/14 06:43:15;;;;;;;;;;;;;;;21.37;100.00;98489.25;5071730;28;19946;-79
2022/08/14 06:45:44;;;;;;;;;;;;;;;21.54;100.00;98497.84;5070879;28;19935;-80
2022/08/14 06:48:20;;;;;;;;;;;;;;;21.69;100.00;98489.88;5071477;28;19935;-81
2022/08/14 06:50:48;;;;;;;;;;;;;;;21.90;100.00;98496.94;5071837;28;19971;-81
2022/08/14 06:53:16;;;;;;;;;;;;;;;22.04;100.00;98492.34;5070958;28;19924;-81
2022/08/14 06:55:44;;;;;;;;;;;;;;;22.22;100.00;98489.78;5070669;28;20598;-81
2022/08/14 06:58:12;;;;;;;;;;;;;;;22.51;100.00;98483.59;5074001;28;19925;-80
2022/08/14 07:05:44;;;;;;;;;;;;;;;22.78;100.00;98485.66;5073418;28;20279;-77
2022/08/14 07:06:13;;;;;;;;;;;;;;;23.87;100.00;98477.25;5075334;28;19925;-80
2022/08/14 07:08:42;;;;;;;;;;;;;;;24.74;100.00;98480.03;5073664;28;20348;-79
2022/08/14 07:11:10;;;;;;;;;;;;;;;25.88;100.00;98470.66;5074613;28;20335;-80
2022/08/14 07:13:37;;;;;;;;;;;;;;;27.11;100.00;98456.63;5074924;28;19925;-79
2022/08/14 07:16:04;;;;;;;;;;;;;;;28.26;100.00;98454.75;5074420;28;19928;-79
2022/08/14 07:18:34;;;;;;;;;;;;;;;28.82;100.00;98444.19;5074706;28;20272;-79
2022/08/14 07:21:03;;;;;;;;;;;;;;;29.25;100.00;98444.31;5072349;28;19956;-79
2022/08/14 07:23:30;;;;;;;;;;;;;;;29.21;100.00;98451.78;5074313;28;20002;-79
2022/08/14 07:25:58;;;;;;;;;;;;;;;29.15;100.00;98454.81;5072656;28;19955;-79
2022/08/14 07:28:28;;;;;;;;;;;;;;;28.93;100.00;98451.75;5073230;28;19995;-79
2022/08/14 07:30:58;;;;;;;;;;;;;;;28.76;100.00;98451.41;5074784;28;19925;-80
2022/08/14 07:33:27;;;;;;;;;;;;;;;28.92;100.00;98453.84;5074067;28;20036;-79
2022/08/14 07:35:55;;;;;;;;;;;;;;;29.71;100.00;98443.28;5073846;28;19928;-79
2022/08/14 07:38:22;;;;;;;;;;;;;;;30.62;100.00;98443.53;5074162;28;19939;-79
2022/08/14 07:40:50;;;;;;;;;;;;;;;31.22;100.00;98437.75;5073738;28;19924;-78
2022/08/14 07:43:18;;;;;;;;;;;;;;;31.90;100.00;98431.81;5072780;28;19978;-79
2022/08/14 07:45:45;;;;;;;;;;;;;;;32.24;100.00;98438.56;5072749;28;20428;-79
2022/08/14 07:48:12;;;;;;;;;;;;;;;32.40;100.00;98445.81;5072703;28;19924;-79
2022/08/14 07:50:39;;;;;;;;;;;;;;;32.78;100.00;98445.53;5073906;28;19925;-79
2022/08/14 07:53:06;;;;;;;;;;;;;;;32.88;100.00;98444.31;5074395;28;20013;-79
2022/08/14 07:55:35;;;;;;;;;;;;;;;32.57;100.00;98445.13;5055161;28;19933;-79
2022/08/14 07:58:03;;;;;;;;;;;;;;;32.52;100.00;98444.00;5073896;28;19967;-79
2022/08/14 08:00:44;;;;;;;;;;;;;;;32.31;100.00;98437.00;5073847;28;20054;-79
2022/08/14 08:03:15;;;;;;;;;;;;;;;32.71;100.00;98432.69;5074619;28;19928;-78
2022/08/14 08:05:44;;;;;;;;;;;;;;;33.17;100.00;98423.63;5073680;28;19925;-78
2022/08/14 08:08:14;;;;;;;;;;;;;;;33.79;100.00;98428.94;5073535;28;19932;-79
2022/08/14 08:10:42;;;;;;;;;;;;;;;34.03;100.00;98422.28;5073065;28;19947;-79
2022/08/14 08:13:14;;;;;;;;;;;;;;;34.38;100.00;98426.63;5062878;28;20368;-79
2022/08/14 08:15:43;;;;;;;;;;;;;;;33.90;100.00;98425.53;5072401;28;19931;-79
2022/08/14 08:18:12;;;;;;;;;;;;;;;34.06;100.00;98421.06;5074924;28;19955;-79
2022/08/14 08:20:41;;;;;;;;;;;;;;;34.31;100.00;98416.63;5072024;28;19924;-79
2022/08/14 08:23:09;;;;;;;;;;;;;;;34.00;100.00;98415.56;5072276;28;20015;-79
2022/08/14 08:25:37;;;;;;;;;;;;;;;34.50;100.00;98413.88;5071322;28;20364;-79
2022/08/14 08:28:10;;;;;;;;;;;;;;;34.85;100.00;98408.66;5072092;28;19935;-79
2022/08/14 08:30:39;;;;;;;;;;;;;;;35.05;100.00;98404.44;5067916;28;20387;-79
2022/08/14 08:33:07;;;;;;;;;;;;;;;34.56;100.00;98402.75;5075454;28;20027;-79
2022/08/14 08:35:37;;;;;;;;;;;;;;;34.49;98.09;98388.38;5077377;28;19928;-79
2022/08/14 08:38:06;;;;;;;;;;;;;;;33.81;98.40;98395.09;5077004;28;19932;-79
2022/08/14 08:40:40;;;;;;;;;;;;;;;33.24;99.93;98388.03;5076542;28;19977;-79
2022/08/14 08:43:15;;;;;;;;;;;;;;;32.75;100.00;98389.63;5077205;28;20430;-79
2022/08/14 08:45:43;;;;;;;;;;;;;;;33.21;100.00;98395.00;5077244;28;19928;-79
2022/08/14 08:48:10;;;;;;;;;;;;;;;32.77;100.00;98392.72;5077281;28;19925;-79
2022/08/14 08:50:38;;;;;;;;;;;;;;;32.80;100.00;98391.53;5077021;28;19931;-79
2022/08/14 08:53:08;;;;;;;;;;;;;;;33.36;100.00;98389.81;5075753;28;19917;-79
2022/08/14 08:55:39;;;;;;;;;;;;;;;34.33;100.00;98382.03;5076803;28;19929;-79
2022/08/14 08:58:08;;;;;;;;;;;;;;;34.90;100.00;98386.56;5076324;28;19924;-79
2022/08/14 09:00:37;;;;;;;;;;;;;;;35.47;100.00;98381.63;5076210;28;19925;-79
2022/08/14 09:03:14;;;;;;;;;;;;;;;35.86;100.00;98377.34;5076384;28;20333;-79
2022/08/14 09:05:52;;;;;;;;;;;;;;;35.08;100.00;98380.00;5080534;28;19991;-79
2022/08/14 09:08:21;;;;;;;;;;;;;;;35.65;100.00;98374.28;5059333;28;19940;-79
2022/08/14 09:10:48;;;;;;;;;;;;;;;35.92;98.72;98377.78;5074329;28;20018;-80
2022/08/14 09:13:18;;;;;;;;;;;;;;;35.81;98.42;98369.69;5076505;28;19924;-79
2022/08/14 09:15:46;;;;;;;;;;;;;;;35.76;97.36;98367.81;5075459;28;20287;-79
2022/08/14 09:18:15;;;;;;;;;;;;;;;35.55;100.00;98373.50;5077358;28;19928;-79
2022/08/14 09:21:12;;;;;;;;;;;;;;;33.52;98.10;98370.19;5078654;28;20002;-79
2022/08/14 09:23:46;;;;;;;;;;;;;;;33.94;98.69;98370.81;5072642;28;19924;-79
2022/08/14 09:26:15;;;;;;;;;;;;;;;33.97;99.29;98366.72;5082396;28;19936;-79
2022/08/14 09:28:58;;;;;;;;;;;;;;;34.82;98.30;98351.84;5075916;28;19924;-79
2022/08/14 09:31:27;;;;;;;;;;;;;;;34.58;95.62;98350.69;5058640;28;19928;-78
2022/08/14 09:34:07;;;;;;;;;;;;;;;33.94;95.91;98344.72;5076951;28;20023;-78
2022/08/14 09:36:54;;;;;;;;;;;;;;;32.56;100.00;98365.53;5105545;28;20273;-79
2022/08/14 09:39:30;;;;;;;;;;;;;;;32.72;100.00;98364.78;5074541;28;19931;-79
2022/08/14 09:42:15;;;;;;;;;;;;;;;32.53;100.00;98355.91;5075796;28;19932;-79
2022/08/14 09:44:57;;;;;;;;;;;;;;;32.56;100.00;98354.72;5072974;28;19948;-79
2022/08/14 09:48:03;;;;;;;;;;;;;;;31.85;100.00;98354.81;5075464;28;19929;-79
2022/08/14 09:50:43;;;;;;;;;;;;;;;32.48;100.00;98354.00;5033039;28;19980;-79
2022/08/14 09:53:11;;;;;;;;;;;;;;;31.84;100.00;98347.50;5033428;28;20266;-79
2022/08/14 09:55:38;;;;;;;;;;;;;;;32.99;100.00;98339.66;5016773;28;19971;-79
2022/08/14 09:58:13;;;;;;;;;;;;;;;32.58;100.00;98334.66;5034285;28;20016;-79
2022/08/14 10:00:58;;;;;;;;;;;;;;;32.14;100.00;98335.75;5033251;28;20612;-79
2022/08/14 10:03:32;;;;;;;;;;;;;;;31.13;100.00;98334.47;5013796;28;19929;-79
2022/08/14 10:06:12;;;;;;;;;;;;;;;30.77;100.00;98339.75;5013332;28;19926;-78
2022/08/14 10:08:41;;;;;;;;;;;;;;;30.42;100.00;98332.06;5013719;28;20369;-78
2022/08/14 10:11:20;;;;;;;;;;;;;;;29.76;100.00;98321.41;4997464;28;19929;-80
2022/08/14 10:13:53;;;;;;;;;;;;;;;30.62;100.00;98323.22;4997435;28;19926;-80
2022/08/14 10:16:22;;;;;;;;;;;;;;;31.21;100.00;98321.56;5013876;28;20083;-81
2022/08/14 10:19:01;;;;;;;;;;;;;;;30.54;100.00;98315.91;5013699;28;20386;-80
2022/08/14 10:21:28;;;;;;;;;;;;;;;31.39;100.00;98316.72;5037484;28;19925;-81
2022/08/14 10:23:55;;;;;;;;;;;;;;;31.31;100.00;98305.19;5088278;28;19972;-82
2022/08/14 10:26:24;;;;;;;;;;;;;;;30.60;99.99;98302.06;5037991;28;19928;-82
2022/08/14 10:28:52;;;;;;;;;;;;;;;31.40;100.00;98303.81;5054890;28;19924;-82
2022/08/14 10:31:21;;;;;;;;;;;;;;;31.57;100.00;98309.69;5056121;28;19925;-82
2022/08/14 10:34:05;;;;;;;;;;;;;;;30.91;100.00;98304.38;5055935;28;19979;-83
2022/08/14 10:36:43;;;;;;;;;;;;;;;30.81;100.00;98296.91;5055877;28;20023;-82
2022/08/14 10:39:18;;;;;;;;;;;;;;;30.75;100.00;98302.06;5038407;28;19932;-82
2022/08/14 10:41:45;;;;;;;;;;;;;;;31.31;99.97;98284.22;5055529;28;19932;-81
2022/08/14 10:44:13;;;;;;;;;;;;;;;31.17;98.57;98286.56;5054055;28;20349;-81
2022/08/14 10:46:43;;;;;;;;;;;;;;;30.83;99.45;98271.09;5070719;28;19928;-81
2022/08/14 10:49:18;;;;;;;;;;;;;;;31.18;100.00;98278.69;5055331;28;19925;-81
2022/08/14 10:52:07;;;;;;;;;;;;;;;32.24;100.00;98270.94;5087629;28;19931;-81
2022/08/14 10:54:44;;;;;;;;;;;;;;;32.96;98.99;98271.41;5053330;28;20291;-80
2022/08/14 10:57:11;;;;;;;;;;;;;;;32.11;100.00;98273.38;5054843;28;19964;-80
2022/08/14 10:59:52;;;;;;;;;;;;;;;33.16;97.23;98257.13;5054698;28;20368;-80
2022/08/14 11:02:28;;;;;;;;;;;;;;;33.49;95.94;98258.44;5070118;28;19979;-81
2022/08/14 11:04:59;;;;;;;;;;;;;;;31.73;95.57;98267.84;5054908;28;19928;-81
2022/08/14 11:07:27;;;;;;;;;;;;;;;31.79;98.92;98264.72;5055010;28;20241;-81
2022/08/14 11:09:56;;;;;;;;;;;;;;;32.84;93.62;98247.22;5055059;28;20391;-81
2022/08/14 11:12:25;;;;;;;;;;;;;;;32.93;95.84;98246.56;5055123;28;19931;-81
2022/08/14 11:14:53;;;;;;;;;;;;;;;33.19;94.83;98238.56;5054769;28;19925;-81
2022/08/14 11:17:21;;;;;;;;;;;;;;;33.09;94.93;98235.59;5054373;28;19925;-81
2022/08/14 11:19:49;;;;;;;;;;;;;;;33.63;94.93;98233.50;5070200;28;19924;-81
2022/08/14 11:22:20;;;;;;;;;;;;;;;32.08;96.00;98246.41;5053500;28;20006;-81
2022/08/14 11:24:49;;;;;;;;;;;;;;;32.09;95.11;98230.63;5054684;28;20276;-81
2022/08/14 11:27:17;;;;;;;;;;;;;;;33.07;94.32;98235.41;5054758;28;19925;-81
2022/08/14 11:29:47;;;;;;;;;;;;;;;32.75;94.01;98224.78;5054583;28;19928;-81
2022/08/14 11:32:14;;;;;;;;;;;;;;;32.52;92.99;98221.34;5054251;28;19929;-81
2022/08/14 11:34:42;;;;;;;;;;;;;;;33.35;91.60;98219.63;5054509;28;19925;-81
2022/08/14 11:37:09;;;;;;;;;;;;;;;32.94;94.97;98227.84;5054740;28;19932;-81
2022/08/14 11:39:38;;;;;;;;;;;;;;;32.94;93.11;98219.16;5054395;28;19925;-81
2022/08/14 11:42:06;;;;;;;;;;;;;;;31.34;92.63;98229.00;5053108;28;19932;-81
2022/08/14 11:44:33;;;;;;;;;;;;;;;32.17;90.68;98207.44;5054372;28;19994;-81
2022/08/14 11:47:02;;;;;;;;;;;;;;;32.00;92.19;98207.38;5085795;28;20016;-81
2022/08/14 11:49:30;;;;;;;;;;;;;;;32.98;93.48;98204.28;5053190;28;19978;-81
2022/08/14 11:51:57;;;;;;;;;;;;;;;31.85;93.12;98202.50;5054246;28;19931;-81
2022/08/14 11:54:24;;;;;;;;;;;;;;;32.90;92.94;98201.47;5053124;28;19931;-81
2022/08/14 11:56:51;;;;;;;;;;;;;;;32.77;91.73;98196.03;5086370;28;20018;-81
2022/08/14 11:59:21;;;;;;;;;;;;;;;32.76;90.94;98196.63;5052887;28;19928;-81
2022/08/14 12:01:48;;;;;;;;;;;;;;;33.10;90.89;98192.97;5054000;28;19925;-81
2022/08/14 12:04:17;;;;;;;;;;;;;;;33.02;90.67;98195.94;5054188;28;19924;-81
2022/08/14 12:06:47;;;;;;;;;;;;;;;32.59;93.56;98190.84;5052588;28;19964;-81
2022/08/14 12:09:26;;;;;;;;;;;;;;;33.41;90.85;98182.50;5069519;28;19932;-81
2022/08/14 12:11:54;;;;;;;;;;;;;;;34.16;90.46;98181.28;5055130;28;20249;-80
2022/08/14 12:14:22;;;;;;;;;;;;;;;32.58;87.93;98178.50;5070261;28;19931;-79
2022/08/14 12:17:18;;;;;;;;;;;;;;;33.30;89.24;98178.00;5071784;28;19931;-79
2022/08/14 12:19:47;;;;;;;;;;;;;;;32.71;90.90;98175.28;5063531;28;19947;-80
2022/08/14 12:22:14;;;;;;;;;;;;;;;33.48;94.27;98181.63;5072364;28;19930;-80
2022/08/14 12:24:42;;;;;;;;;;;;;;;33.28;90.56;98174.94;5072327;28;19924;-80
2022/08/14 12:27:12;;;;;;;;;;;;;;;33.59;91.83;98169.47;5073927;28;19924;-79
2022/08/14 12:29:50;;;;;;;;;;;;;;;32.70;92.94;98167.94;5092294;28;20006;-80
2022/08/14 12:32:18;;;;;;;;;;;;;;;33.42;93.13;98166.66;5078652;28;19928;-80
2022/08/14 12:34:51;;;;;;;;;;;;;;;33.98;89.79;98160.38;5072396;28;20390;-80
2022/08/14 12:37:18;;;;;;;;;;;;;;;34.07;90.34;98155.94;5066846;28;19932;-80
2022/08/14 12:39:45;;;;;;;;;;;;;;;34.04;91.54;98157.16;5073481;28;20462;-80
2022/08/14 12:42:15;;;;;;;;;;;;;;;33.05;93.59;98157.13;5069884;28;20035;-79
2022/08/14 12:44:42;;;;;;;;;;;;;;;32.95;96.17;98164.97;5058043;28;20260;-79
2022/08/14 12:47:12;;;;;;;;;;;;;;;32.86;94.59;98157.75;5070448;28;19925;-79
2022/08/14 12:49:52;;;;;;;;;;;;;;;33.07;93.26;98153.66;5073354;28;20433;-79
2022/08/14 12:52:46;;;;;;;;;;;;;;;33.58;92.83;98150.59;5072182;28;19960;-80
2022/08/14 12:55:15;;;;;;;;;;;;;;;32.88;95.08;98155.03;5071491;28;19936;-79
2022/08/14 12:57:44;;;;;;;;;;;;;;;32.53;97.97;98150.63;5055554;28;19979;-79
2022/08/14 13:00:18;;;;;;;;;;;;;;;32.05;93.99;98143.56;5064713;28;19925;-80
2022/08/14 13:02:46;;;;;;;;;;;;;;;32.39;95.60;98149.44;5072981;28;19929;-79
2022/08/14 13:05:14;;;;;;;;;;;;;;;32.46;95.01;98150.72;5071966;28;20020;-79
2022/08/14 13:07:41;;;;;;;;;;;;;;;32.76;95.87;98147.47;5073205;28;19928;-79